RCH3512 ENDU-ENEV
Flight info
| Callsign | RCH3512 |
|---|---|
| Flight time | 1h 25m |
| Altitude | 14000 |
| Route | IBETU DCT OTBAN DCT ULTAL/N0150A020 STAY1/0020 DCT BEVIP DCT KOPIN DCT XAPOR/N0190A080 STAY2/0010 |
| Aircraft | C130/M-SDE2E3FGRY/H |
Departure
| Time | 2026-04-28 21:29 |
|---|---|
| Airport | Bardufoss Airport (ENDU) |
Arrival
| Time | 2026-04-28 22:55 |
|---|---|
| Airport | Harstad/Narvik Airport (ENEV) |
| Time | Latitude | Longitude | Altitude | Speed | Heading |
|---|---|---|---|---|---|
| 2026-04-28 21:26 | 69.05907 | 18.51172 | 266 ft | 0 kts | 110° |
| 2026-04-28 21:28 | 69.05900 | 18.51223 | 266 ft | 19 kts | 110° |
| 2026-04-28 21:28 | 69.05724 | 18.52621 | 309 ft | 124 kts | 110° |
| 2026-04-28 21:28 | 69.05382 | 18.55279 | 705 ft | 164 kts | 111° |
| 2026-04-28 21:29 | 69.04954 | 18.58319 | 830 ft | 168 kts | 112° |
| 2026-04-28 21:29 | 69.04507 | 18.61336 | 895 ft | 167 kts | 114° |
| 2026-04-28 21:29 | 69.04036 | 18.64324 | 1203 ft | 173 kts | 115° |
| 2026-04-28 21:29 | 69.03496 | 18.67506 | 2049 ft | 189 kts | 116° |
| 2026-04-28 21:30 | 69.02937 | 18.70821 | 2857 ft | 192 kts | 115° |
| 2026-04-28 21:30 | 69.02379 | 18.74286 | 3560 ft | 197 kts | 115° |
| 2026-04-28 21:30 | 69.01792 | 18.77841 | 4463 ft | 208 kts | 116° |
| 2026-04-28 21:30 | 69.01122 | 18.81508 | 5184 ft | 215 kts | 120° |
| 2026-04-28 21:31 | 69.00354 | 18.85110 | 5619 ft | 219 kts | 123° |
| 2026-04-28 21:31 | 68.99493 | 18.88640 | 5440 ft | 216 kts | 126° |
| 2026-04-28 21:31 | 68.98640 | 18.92095 | 5501 ft | 217 kts | 121° |
| 2026-04-28 21:31 | 68.98195 | 18.96042 | 5528 ft | 217 kts | 89° |
| 2026-04-28 21:32 | 68.98667 | 18.99895 | 5675 ft | 212 kts | 48° |
| 2026-04-28 21:32 | 68.99885 | 19.01993 | 5890 ft | 206 kts | 13° |
| 2026-04-28 21:32 | 69.01285 | 19.02735 | 6095 ft | 205 kts | 6° |
| 2026-04-28 21:32 | 69.02693 | 19.03255 | 6299 ft | 205 kts | 6° |
| 2026-04-28 21:33 | 69.04105 | 19.03805 | 6509 ft | 205 kts | 6° |
| 2026-04-28 21:33 | 69.05513 | 19.04401 | 6707 ft | 204 kts | 7° |
| 2026-04-28 21:33 | 69.06918 | 19.05032 | 6885 ft | 204 kts | 7° |
| 2026-04-28 21:33 | 69.08325 | 19.05688 | 7103 ft | 205 kts | 8° |
| 2026-04-28 21:34 | 69.09727 | 19.06358 | 7286 ft | 205 kts | 8° |
| 2026-04-28 21:34 | 69.11193 | 19.07067 | 7486 ft | 218 kts | 8° |
| 2026-04-28 21:34 | 69.12696 | 19.07806 | 7684 ft | 219 kts | 8° |
| 2026-04-28 21:34 | 69.14197 | 19.08552 | 7866 ft | 220 kts | 8° |
| 2026-04-28 21:35 | 69.15708 | 19.09306 | 8090 ft | 221 kts | 8° |
| 2026-04-28 21:35 | 69.17224 | 19.10067 | 8287 ft | 221 kts | 9° |
| 2026-04-28 21:35 | 69.18733 | 19.10827 | 8483 ft | 221 kts | 9° |
| 2026-04-28 21:35 | 69.20242 | 19.11588 | 8675 ft | 221 kts | 9° |
| 2026-04-28 21:36 | 69.21763 | 19.12357 | 8875 ft | 221 kts | 9° |
| 2026-04-28 21:36 | 69.23273 | 19.13122 | 9060 ft | 221 kts | 9° |
| 2026-04-28 21:36 | 69.24791 | 19.13892 | 9286 ft | 222 kts | 9° |
| 2026-04-28 21:36 | 69.26317 | 19.14668 | 9487 ft | 222 kts | 9° |
| 2026-04-28 21:37 | 69.27833 | 19.15439 | 9692 ft | 222 kts | 9° |
| 2026-04-28 21:37 | 69.29360 | 19.16218 | 9897 ft | 223 kts | 9° |
| 2026-04-28 21:37 | 69.30882 | 19.16995 | 10103 ft | 223 kts | 9° |
| 2026-04-28 21:37 | 69.32413 | 19.17777 | 10307 ft | 223 kts | 9° |
| 2026-04-28 21:38 | 69.33941 | 19.18560 | 10504 ft | 224 kts | 9° |
| 2026-04-28 21:38 | 69.35456 | 19.19336 | 10692 ft | 224 kts | 8° |
| 2026-04-28 21:38 | 69.36989 | 19.20122 | 10868 ft | 224 kts | 8° |
| 2026-04-28 21:38 | 69.38532 | 19.20916 | 11054 ft | 225 kts | 8° |
| 2026-04-28 21:39 | 69.40074 | 19.21709 | 11242 ft | 226 kts | 8° |
| 2026-04-28 21:39 | 69.41636 | 19.22514 | 11419 ft | 226 kts | 9° |
| 2026-04-28 21:39 | 69.43174 | 19.23308 | 11635 ft | 228 kts | 8° |
| 2026-04-28 21:39 | 69.44729 | 19.24112 | 11822 ft | 227 kts | 8° |
| 2026-04-28 21:40 | 69.46290 | 19.24921 | 12024 ft | 228 kts | 8° |
| 2026-04-28 21:40 | 69.47849 | 19.25729 | 12220 ft | 228 kts | 8° |
| 2026-04-28 21:40 | 69.49377 | 19.26523 | 12426 ft | 230 kts | 8° |
| 2026-04-28 21:40 | 69.50983 | 19.27359 | 12633 ft | 230 kts | 8° |
| 2026-04-28 21:41 | 69.52561 | 19.28181 | 12819 ft | 231 kts | 8° |
| 2026-04-28 21:41 | 69.54140 | 19.29005 | 13022 ft | 232 kts | 8° |
| 2026-04-28 21:41 | 69.55733 | 19.29838 | 13230 ft | 232 kts | 8° |
| 2026-04-28 21:41 | 69.57324 | 19.30670 | 13337 ft | 234 kts | 8° |
| 2026-04-28 21:42 | 69.58915 | 19.31505 | 13274 ft | 232 kts | 8° |
| 2026-04-28 21:42 | 69.60503 | 19.32339 | 13263 ft | 232 kts | 8° |
| 2026-04-28 21:42 | 69.62088 | 19.33172 | 13249 ft | 232 kts | 8° |
| 2026-04-28 21:42 | 69.63677 | 19.34008 | 13265 ft | 232 kts | 8° |
| 2026-04-28 21:43 | 69.65267 | 19.34847 | 13268 ft | 232 kts | 8° |
| 2026-04-28 21:43 | 69.66858 | 19.35687 | 13259 ft | 232 kts | 8° |
| 2026-04-28 21:43 | 69.68446 | 19.36528 | 13161 ft | 232 kts | 8° |
| 2026-04-28 21:43 | 69.70038 | 19.37372 | 12934 ft | 231 kts | 8° |
| 2026-04-28 21:44 | 69.71581 | 19.38191 | 12685 ft | 230 kts | 8° |
| 2026-04-28 21:44 | 69.73181 | 19.39042 | 12425 ft | 229 kts | 8° |
| 2026-04-28 21:44 | 69.74752 | 19.39878 | 12178 ft | 229 kts | 8° |
| 2026-04-28 21:44 | 69.76317 | 19.40713 | 11917 ft | 228 kts | 8° |
| 2026-04-28 21:45 | 69.77871 | 19.41542 | 11677 ft | 227 kts | 8° |
| 2026-04-28 21:45 | 69.79425 | 19.42373 | 11438 ft | 227 kts | 8° |
| 2026-04-28 21:45 | 69.80971 | 19.43201 | 11184 ft | 226 kts | 8° |
| 2026-04-28 21:45 | 69.82521 | 19.44031 | 10940 ft | 226 kts | 9° |
| 2026-04-28 21:46 | 69.84058 | 19.44856 | 10709 ft | 225 kts | 9° |
| 2026-04-28 21:46 | 69.85593 | 19.45682 | 10442 ft | 224 kts | 9° |
| 2026-04-28 21:46 | 69.87130 | 19.46510 | 10207 ft | 224 kts | 9° |
| 2026-04-28 21:46 | 69.88654 | 19.47332 | 9959 ft | 223 kts | 9° |
| 2026-04-28 21:47 | 69.90188 | 19.48161 | 9711 ft | 223 kts | 9° |
| 2026-04-28 21:47 | 69.91709 | 19.48984 | 9440 ft | 223 kts | 9° |
| 2026-04-28 21:47 | 69.93204 | 19.49795 | 9177 ft | 218 kts | 9° |
| 2026-04-28 21:47 | 69.94700 | 19.50607 | 8908 ft | 218 kts | 9° |
| 2026-04-28 21:48 | 69.96193 | 19.51417 | 8646 ft | 219 kts | 9° |
| 2026-04-28 21:48 | 69.97686 | 19.52230 | 8395 ft | 218 kts | 9° |
| 2026-04-28 21:48 | 69.99176 | 19.53042 | 8139 ft | 218 kts | 9° |
| 2026-04-28 21:48 | 70.00670 | 19.53857 | 7867 ft | 218 kts | 9° |
| 2026-04-28 21:49 | 70.02159 | 19.54671 | 7610 ft | 218 kts | 9° |
| 2026-04-28 21:49 | 70.03650 | 19.55487 | 7365 ft | 218 kts | 9° |
| 2026-04-28 21:49 | 70.05138 | 19.56302 | 7129 ft | 218 kts | 9° |
| 2026-04-28 21:49 | 70.06609 | 19.57110 | 6873 ft | 214 kts | 9° |
| 2026-04-28 21:50 | 70.07575 | 19.57642 | 6705 ft | 214 kts | 9° |
| 2026-04-28 21:50 | 70.09036 | 19.58445 | 6428 ft | 213 kts | 9° |
| 2026-04-28 21:50 | 70.10496 | 19.59249 | 6164 ft | 213 kts | 9° |
| 2026-04-28 21:50 | 70.11953 | 19.60052 | 5903 ft | 212 kts | 9° |
| 2026-04-28 21:51 | 70.13400 | 19.60852 | 5649 ft | 212 kts | 9° |
| 2026-04-28 21:51 | 70.14853 | 19.61656 | 5392 ft | 212 kts | 9° |
| 2026-04-28 21:51 | 70.16297 | 19.62457 | 5140 ft | 212 kts | 9° |
| 2026-04-28 21:51 | 70.17749 | 19.63263 | 4880 ft | 211 kts | 9° |
| 2026-04-28 21:52 | 70.19127 | 19.64657 | 4608 ft | 212 kts | 32° |
| 2026-04-28 21:52 | 70.20111 | 19.67814 | 4352 ft | 211 kts | 59° |
| 2026-04-28 21:52 | 70.20775 | 19.71677 | 4096 ft | 210 kts | 65° |
| 2026-04-28 21:52 | 70.21366 | 19.75608 | 3834 ft | 209 kts | 66° |
| 2026-04-28 21:53 | 70.21945 | 19.79524 | 3592 ft | 208 kts | 66° |
| 2026-04-28 21:53 | 70.22525 | 19.83425 | 3325 ft | 208 kts | 66° |
| 2026-04-28 21:53 | 70.23110 | 19.87332 | 3071 ft | 206 kts | 66° |
| 2026-04-28 21:53 | 70.23687 | 19.91170 | 2993 ft | 206 kts | 66° |
| 2026-04-28 21:54 | 70.24273 | 19.95063 | 2990 ft | 206 kts | 66° |
| 2026-04-28 21:54 | 70.24856 | 19.98937 | 3005 ft | 207 kts | 66° |
| 2026-04-28 21:54 | 70.25432 | 20.02765 | 2990 ft | 199 kts | 66° |
| 2026-04-28 21:54 | 70.25991 | 20.06485 | 3009 ft | 196 kts | 66° |
| 2026-04-28 21:55 | 70.26544 | 20.10176 | 3014 ft | 197 kts | 66° |
| 2026-04-28 21:55 | 70.27094 | 20.13849 | 3013 ft | 197 kts | 66° |
| 2026-04-28 21:55 | 70.27650 | 20.17574 | 3001 ft | 196 kts | 66° |
| 2026-04-28 21:55 | 70.28198 | 20.21251 | 3011 ft | 196 kts | 66° |
| 2026-04-28 21:56 | 70.28747 | 20.24937 | 3011 ft | 196 kts | 66° |
| 2026-04-28 21:56 | 70.29293 | 20.28610 | 3013 ft | 197 kts | 66° |
| 2026-04-28 21:56 | 70.29829 | 20.32228 | 2854 ft | 190 kts | 67° |
| 2026-04-28 21:56 | 70.30348 | 20.35743 | 2639 ft | 185 kts | 67° |
| 2026-04-28 21:57 | 70.30869 | 20.39273 | 2429 ft | 185 kts | 67° |
| 2026-04-28 21:57 | 70.31388 | 20.42702 | 2219 ft | 184 kts | 62° |
| 2026-04-28 21:57 | 70.32248 | 20.45433 | 2026 ft | 184 kts | 26° |
| 2026-04-28 21:57 | 70.33483 | 20.45738 | 1991 ft | 182 kts | 339° |
| 2026-04-28 21:58 | 70.34400 | 20.43357 | 2009 ft | 179 kts | 296° |
| 2026-04-28 21:58 | 70.34778 | 20.39855 | 2005 ft | 178 kts | 280° |
| 2026-04-28 21:58 | 70.34986 | 20.36238 | 2007 ft | 177 kts | 277° |
| 2026-04-28 21:58 | 70.35169 | 20.32624 | 2007 ft | 177 kts | 277° |
| 2026-04-28 21:59 | 70.35359 | 20.29025 | 2006 ft | 178 kts | 278° |
| 2026-04-28 21:59 | 70.35561 | 20.25418 | 2007 ft | 177 kts | 278° |
| 2026-04-28 21:59 | 70.35773 | 20.21794 | 2003 ft | 178 kts | 279° |
| 2026-04-28 22:00 | 70.36109 | 20.14519 | 1999 ft | 177 kts | 268° |
| 2026-04-28 22:00 | 70.36025 | 20.10890 | 2001 ft | 176 kts | 263° |
| 2026-04-28 22:00 | 70.35877 | 20.07277 | 2007 ft | 176 kts | 262° |
| 2026-04-28 22:00 | 70.35721 | 20.03670 | 2000 ft | 176 kts | 262° |
| 2026-04-28 22:01 | 70.35568 | 20.00062 | 2012 ft | 176 kts | 262° |
| 2026-04-28 22:01 | 70.35419 | 19.96448 | 2003 ft | 176 kts | 262° |
| 2026-04-28 22:01 | 70.35274 | 19.92839 | 2005 ft | 176 kts | 262° |
| 2026-04-28 22:01 | 70.35131 | 19.89217 | 2005 ft | 177 kts | 262° |
| 2026-04-28 22:02 | 70.34989 | 19.85598 | 2004 ft | 177 kts | 262° |
| 2026-04-28 22:02 | 70.34864 | 19.82369 | 2005 ft | 176 kts | 262° |
| 2026-04-28 22:02 | 70.34719 | 19.78636 | 2007 ft | 176 kts | 262° |
| 2026-04-28 22:02 | 70.34578 | 19.75023 | 2006 ft | 177 kts | 262° |
| 2026-04-28 22:03 | 70.34437 | 19.71404 | 2005 ft | 177 kts | 262° |
| 2026-04-28 22:03 | 70.34295 | 19.67778 | 2004 ft | 177 kts | 262° |
| 2026-04-28 22:03 | 70.34154 | 19.64200 | 2004 ft | 177 kts | 262° |
| 2026-04-28 22:03 | 70.34012 | 19.60578 | 2004 ft | 176 kts | 262° |
| 2026-04-28 22:04 | 70.33878 | 19.57199 | 2003 ft | 176 kts | 262° |
| 2026-04-28 22:04 | 70.33734 | 19.53584 | 2001 ft | 176 kts | 262° |
| 2026-04-28 22:04 | 70.33590 | 19.49981 | 2002 ft | 176 kts | 262° |
| 2026-04-28 22:04 | 70.33461 | 19.46757 | 2002 ft | 176 kts | 262° |
| 2026-04-28 22:05 | 70.33309 | 19.43013 | 2006 ft | 176 kts | 262° |
| 2026-04-28 22:05 | 70.33161 | 19.39388 | 2004 ft | 176 kts | 262° |
| 2026-04-28 22:05 | 70.33014 | 19.35783 | 2004 ft | 176 kts | 262° |
| 2026-04-28 22:05 | 70.32867 | 19.32194 | 2003 ft | 176 kts | 261° |
| 2026-04-28 22:06 | 70.32718 | 19.28595 | 2002 ft | 176 kts | 261° |
| 2026-04-28 22:06 | 70.32568 | 19.24998 | 2003 ft | 176 kts | 262° |
| 2026-04-28 22:06 | 70.32417 | 19.21392 | 2003 ft | 176 kts | 261° |
| 2026-04-28 22:06 | 70.32266 | 19.17791 | 2004 ft | 176 kts | 261° |
| 2026-04-28 22:07 | 70.32113 | 19.14185 | 1999 ft | 176 kts | 262° |
| 2026-04-28 22:07 | 70.31868 | 19.10641 | 1996 ft | 175 kts | 248° |
| 2026-04-28 22:07 | 70.31295 | 19.07491 | 1999 ft | 174 kts | 235° |
| 2026-04-28 22:07 | 70.30635 | 19.04775 | 1998 ft | 174 kts | 232° |
| 2026-04-28 22:08 | 70.29902 | 19.01913 | 1997 ft | 174 kts | 232° |
| 2026-04-28 22:08 | 70.29172 | 18.99054 | 2000 ft | 174 kts | 232° |
| 2026-04-28 22:08 | 70.28451 | 18.96206 | 2002 ft | 175 kts | 233° |
| 2026-04-28 22:08 | 70.27725 | 18.93309 | 2000 ft | 174 kts | 233° |
| 2026-04-28 22:09 | 70.26999 | 18.90395 | 1999 ft | 174 kts | 233° |
| 2026-04-28 22:09 | 70.26173 | 18.87063 | 1998 ft | 174 kts | 233° |
| 2026-04-28 22:09 | 70.25701 | 18.85154 | 1999 ft | 174 kts | 233° |
| 2026-04-28 22:09 | 70.24746 | 18.81286 | 2000 ft | 174 kts | 233° |
| 2026-04-28 22:10 | 70.24031 | 18.78390 | 2000 ft | 174 kts | 233° |
| 2026-04-28 22:10 | 70.23321 | 18.75514 | 2002 ft | 174 kts | 233° |
| 2026-04-28 22:10 | 70.22607 | 18.72623 | 2000 ft | 174 kts | 233° |
| 2026-04-28 22:10 | 70.21896 | 18.69746 | 2001 ft | 174 kts | 233° |
| 2026-04-28 22:11 | 70.21179 | 18.66849 | 1996 ft | 174 kts | 233° |
| 2026-04-28 22:11 | 70.20476 | 18.64011 | 1995 ft | 174 kts | 233° |
| 2026-04-28 22:11 | 70.19943 | 18.61865 | 1996 ft | 174 kts | 233° |
| 2026-04-28 22:11 | 70.19213 | 18.58924 | 2003 ft | 175 kts | 233° |
| 2026-04-28 22:12 | 70.18503 | 18.56068 | 2003 ft | 175 kts | 233° |
| 2026-04-28 22:12 | 70.17781 | 18.53169 | 1994 ft | 174 kts | 233° |
| 2026-04-28 22:12 | 70.17058 | 18.50271 | 1997 ft | 175 kts | 233° |
| 2026-04-28 22:12 | 70.16348 | 18.47429 | 1994 ft | 174 kts | 233° |
| 2026-04-28 22:13 | 70.15623 | 18.44529 | 1995 ft | 174 kts | 233° |
| 2026-04-28 22:13 | 70.14903 | 18.41658 | 1995 ft | 174 kts | 233° |
| 2026-04-28 22:13 | 70.14184 | 18.38792 | 1994 ft | 173 kts | 233° |
| 2026-04-28 22:13 | 70.13476 | 18.35970 | 1996 ft | 175 kts | 233° |
| 2026-04-28 22:14 | 70.12757 | 18.33115 | 1995 ft | 173 kts | 233° |
| 2026-04-28 22:14 | 70.12037 | 18.30258 | 1994 ft | 174 kts | 233° |
| 2026-04-28 22:14 | 70.11272 | 18.27526 | 1992 ft | 174 kts | 224° |
| 2026-04-28 22:14 | 70.10350 | 18.25216 | 1991 ft | 174 kts | 217° |
| 2026-04-28 22:15 | 70.09405 | 18.23159 | 1997 ft | 172 kts | 215° |
| 2026-04-28 22:15 | 70.08445 | 18.21115 | 2001 ft | 169 kts | 215° |
| 2026-04-28 22:15 | 70.07481 | 18.19055 | 1996 ft | 170 kts | 215° |
| 2026-04-28 22:15 | 70.06526 | 18.16997 | 1998 ft | 171 kts | 216° |
| 2026-04-28 22:16 | 70.05565 | 18.14912 | 1993 ft | 172 kts | 216° |
| 2026-04-28 22:16 | 70.04613 | 18.12838 | 1995 ft | 171 kts | 216° |
| 2026-04-28 22:16 | 70.03657 | 18.10747 | 1994 ft | 170 kts | 216° |
| 2026-04-28 22:16 | 70.02715 | 18.08684 | 1994 ft | 172 kts | 216° |
| 2026-04-28 22:17 | 70.01764 | 18.06598 | 1993 ft | 170 kts | 216° |
| 2026-04-28 22:17 | 70.01132 | 18.05214 | 1993 ft | 170 kts | 216° |
| 2026-04-28 22:17 | 70.00173 | 18.03114 | 1993 ft | 171 kts | 216° |
| 2026-04-28 22:17 | 69.99221 | 18.01027 | 1993 ft | 171 kts | 216° |
| 2026-04-28 22:18 | 69.98301 | 17.99012 | 1996 ft | 170 kts | 216° |
| 2026-04-28 22:18 | 69.97327 | 17.96881 | 1996 ft | 170 kts | 215° |
| 2026-04-28 22:18 | 69.96389 | 17.94831 | 1994 ft | 170 kts | 215° |
| 2026-04-28 22:18 | 69.95428 | 17.92735 | 1995 ft | 171 kts | 215° |
| 2026-04-28 22:19 | 69.94481 | 17.90668 | 1999 ft | 169 kts | 215° |
| 2026-04-28 22:19 | 69.93538 | 17.88615 | 1996 ft | 172 kts | 216° |
| 2026-04-28 22:19 | 69.92620 | 17.86620 | 1997 ft | 171 kts | 215° |
| 2026-04-28 22:19 | 69.91660 | 17.84532 | 1994 ft | 170 kts | 215° |
| 2026-04-28 22:20 | 69.90709 | 17.82470 | 1991 ft | 172 kts | 215° |
| 2026-04-28 22:20 | 69.89750 | 17.80392 | 1993 ft | 170 kts | 215° |
| 2026-04-28 22:20 | 69.88793 | 17.78321 | 1989 ft | 173 kts | 215° |
| 2026-04-28 22:20 | 69.87834 | 17.76249 | 1988 ft | 172 kts | 215° |
| 2026-04-28 22:21 | 69.86881 | 17.74192 | 1988 ft | 173 kts | 215° |
| 2026-04-28 22:21 | 69.85923 | 17.72126 | 1990 ft | 170 kts | 215° |
| 2026-04-28 22:21 | 69.84955 | 17.70043 | 1993 ft | 170 kts | 215° |
| 2026-04-28 22:21 | 69.84001 | 17.67993 | 1991 ft | 171 kts | 215° |
| 2026-04-28 22:22 | 69.83057 | 17.65965 | 1993 ft | 172 kts | 215° |
| 2026-04-28 22:22 | 69.82087 | 17.63884 | 1995 ft | 171 kts | 215° |
| 2026-04-28 22:22 | 69.81136 | 17.61847 | 1987 ft | 170 kts | 215° |
| 2026-04-28 22:22 | 69.80204 | 17.59854 | 1995 ft | 170 kts | 215° |
| 2026-04-28 22:23 | 69.79253 | 17.57831 | 1990 ft | 170 kts | 213° |
| 2026-04-28 22:23 | 69.78237 | 17.56088 | 1994 ft | 169 kts | 206° |
| 2026-04-28 22:23 | 69.77161 | 17.54633 | 1989 ft | 170 kts | 203° |
| 2026-04-28 22:23 | 69.76082 | 17.53249 | 1991 ft | 172 kts | 203° |
| 2026-04-28 22:24 | 69.74994 | 17.51852 | 1993 ft | 170 kts | 203° |
| 2026-04-28 22:24 | 69.73882 | 17.50414 | 2002 ft | 177 kts | 203° |
| 2026-04-28 22:24 | 69.72748 | 17.48939 | 2120 ft | 180 kts | 204° |
| 2026-04-28 22:24 | 69.71605 | 17.47441 | 2224 ft | 181 kts | 204° |
| 2026-04-28 22:25 | 69.70455 | 17.45929 | 2326 ft | 182 kts | 204° |
| 2026-04-28 22:25 | 69.69302 | 17.44410 | 2436 ft | 182 kts | 204° |
| 2026-04-28 22:25 | 69.68152 | 17.42894 | 2546 ft | 181 kts | 205° |
| 2026-04-28 22:25 | 69.66986 | 17.41581 | 2644 ft | 181 kts | 197° |
| 2026-04-28 22:26 | 69.65745 | 17.40961 | 2807 ft | 179 kts | 188° |
| 2026-04-28 22:26 | 69.64487 | 17.40621 | 3224 ft | 182 kts | 187° |
| 2026-04-28 22:26 | 69.63222 | 17.40313 | 3710 ft | 185 kts | 188° |
| 2026-04-28 22:26 | 69.61927 | 17.39992 | 4192 ft | 189 kts | 188° |
| 2026-04-28 22:27 | 69.60598 | 17.39653 | 4688 ft | 194 kts | 188° |
| 2026-04-28 22:27 | 69.59237 | 17.39298 | 5193 ft | 198 kts | 188° |
| 2026-04-28 22:27 | 69.57858 | 17.38936 | 5668 ft | 201 kts | 188° |
| 2026-04-28 22:27 | 69.56452 | 17.38564 | 6177 ft | 204 kts | 188° |
| 2026-04-28 22:28 | 69.55024 | 17.38184 | 6684 ft | 207 kts | 188° |
| 2026-04-28 22:28 | 69.53581 | 17.37798 | 7168 ft | 210 kts | 188° |
| 2026-04-28 22:28 | 69.52109 | 17.37401 | 7395 ft | 213 kts | 188° |
| 2026-04-28 22:28 | 69.50638 | 17.37006 | 7420 ft | 206 kts | 188° |
| 2026-04-28 22:29 | 69.49233 | 17.36630 | 7416 ft | 202 kts | 188° |
| 2026-04-28 22:29 | 69.47831 | 17.36251 | 7421 ft | 202 kts | 188° |
| 2026-04-28 22:29 | 69.46439 | 17.35874 | 7430 ft | 202 kts | 188° |
| 2026-04-28 22:29 | 69.45036 | 17.35496 | 7429 ft | 201 kts | 188° |
| 2026-04-28 22:30 | 69.43643 | 17.35122 | 7413 ft | 202 kts | 188° |
| 2026-04-28 22:30 | 69.42243 | 17.34746 | 7432 ft | 202 kts | 188° |
| 2026-04-28 22:30 | 69.40854 | 17.34374 | 7429 ft | 201 kts | 188° |
| 2026-04-28 22:30 | 69.39451 | 17.34000 | 7421 ft | 202 kts | 188° |
| 2026-04-28 22:31 | 69.38060 | 17.33629 | 7425 ft | 201 kts | 188° |
| 2026-04-28 22:31 | 69.36657 | 17.33256 | 7422 ft | 202 kts | 188° |
| 2026-04-28 22:31 | 69.35263 | 17.32885 | 7432 ft | 202 kts | 188° |
| 2026-04-28 22:31 | 69.33869 | 17.32517 | 7422 ft | 201 kts | 188° |
| 2026-04-28 22:32 | 69.32469 | 17.32147 | 7428 ft | 202 kts | 188° |
| 2026-04-28 22:32 | 69.31073 | 17.31778 | 7417 ft | 202 kts | 188° |
| 2026-04-28 22:32 | 69.29676 | 17.31410 | 7427 ft | 202 kts | 188° |
| 2026-04-28 22:32 | 69.28274 | 17.31040 | 7431 ft | 202 kts | 188° |
| 2026-04-28 22:33 | 69.26874 | 17.30672 | 7412 ft | 202 kts | 188° |
| 2026-04-28 22:33 | 69.25475 | 17.30304 | 7432 ft | 202 kts | 188° |
| 2026-04-28 22:33 | 69.24078 | 17.29939 | 7420 ft | 202 kts | 188° |
| 2026-04-28 22:33 | 69.22678 | 17.29574 | 7424 ft | 201 kts | 188° |
| 2026-04-28 22:34 | 69.21283 | 17.29209 | 7422 ft | 202 kts | 188° |
| 2026-04-28 22:34 | 69.19883 | 17.28843 | 7430 ft | 202 kts | 188° |
| 2026-04-28 22:34 | 69.18491 | 17.28481 | 7425 ft | 202 kts | 188° |
| 2026-04-28 22:34 | 69.17087 | 17.28115 | 7417 ft | 202 kts | 188° |
| 2026-04-28 22:35 | 69.15691 | 17.27753 | 7427 ft | 202 kts | 188° |
| 2026-04-28 22:35 | 69.14297 | 17.27391 | 7426 ft | 202 kts | 188° |
| 2026-04-28 22:35 | 69.12892 | 17.27027 | 7418 ft | 202 kts | 188° |
| 2026-04-28 22:35 | 69.11497 | 17.26667 | 7427 ft | 202 kts | 188° |
| 2026-04-28 22:36 | 69.10103 | 17.26306 | 7409 ft | 201 kts | 188° |
| 2026-04-28 22:36 | 69.08690 | 17.25940 | 7431 ft | 206 kts | 187° |
| 2026-04-28 22:36 | 69.07266 | 17.25573 | 7420 ft | 206 kts | 187° |
| 2026-04-28 22:36 | 69.05885 | 17.25219 | 7422 ft | 206 kts | 187° |
| 2026-04-28 22:37 | 69.04444 | 17.24851 | 7416 ft | 196 kts | 187° |
| 2026-04-28 22:37 | 69.03093 | 17.24506 | 7421 ft | 195 kts | 187° |
| 2026-04-28 22:37 | 69.01742 | 17.24158 | 7415 ft | 195 kts | 187° |
| 2026-04-28 22:37 | 69.00392 | 17.23811 | 7414 ft | 195 kts | 187° |
| 2026-04-28 22:38 | 68.99041 | 17.23464 | 7415 ft | 195 kts | 187° |
| 2026-04-28 22:38 | 68.97691 | 17.23120 | 7476 ft | 195 kts | 187° |
| 2026-04-28 22:38 | 68.96377 | 17.22292 | 7340 ft | 192 kts | 210° |
| 2026-04-28 22:38 | 68.95390 | 17.19951 | 7021 ft | 185 kts | 235° |
| 2026-04-28 22:39 | 68.94659 | 17.17001 | 6519 ft | 187 kts | 241° |
| 2026-04-28 22:39 | 68.93990 | 17.13932 | 6017 ft | 187 kts | 242° |
| 2026-04-28 22:39 | 68.93315 | 17.10809 | 5523 ft | 186 kts | 241° |
| 2026-04-28 22:39 | 68.92648 | 17.07764 | 5044 ft | 184 kts | 240° |
| 2026-04-28 22:40 | 68.91988 | 17.04796 | 4565 ft | 181 kts | 239° |
| 2026-04-28 22:40 | 68.91326 | 17.01849 | 4118 ft | 178 kts | 238° |
| 2026-04-28 22:40 | 68.90699 | 16.99075 | 4022 ft | 155 kts | 238° |
| 2026-04-28 22:40 | 68.90142 | 16.96627 | 4020 ft | 151 kts | 238° |
| 2026-04-28 22:41 | 68.89589 | 16.94202 | 4021 ft | 144 kts | 238° |
| 2026-04-28 22:41 | 68.89067 | 16.91915 | 4011 ft | 136 kts | 238° |
| 2026-04-28 22:41 | 68.88569 | 16.89739 | 4016 ft | 135 kts | 237° |
| 2026-04-28 22:41 | 68.88068 | 16.87556 | 4007 ft | 132 kts | 237° |
| 2026-04-28 22:42 | 68.87583 | 16.85446 | 4010 ft | 126 kts | 237° |
| 2026-04-28 22:42 | 68.87114 | 16.83412 | 4014 ft | 124 kts | 237° |
| 2026-04-28 22:42 | 68.86647 | 16.81389 | 4009 ft | 124 kts | 237° |
| 2026-04-28 22:42 | 68.86182 | 16.79380 | 4012 ft | 124 kts | 237° |
| 2026-04-28 22:43 | 68.85715 | 16.77363 | 4011 ft | 124 kts | 237° |
| 2026-04-28 22:43 | 68.85246 | 16.75349 | 4011 ft | 124 kts | 237° |
| 2026-04-28 22:43 | 68.84776 | 16.73327 | 4014 ft | 124 kts | 237° |
| 2026-04-28 22:43 | 68.84306 | 16.71313 | 4009 ft | 124 kts | 237° |
| 2026-04-28 22:44 | 68.83837 | 16.69305 | 4029 ft | 125 kts | 237° |
| 2026-04-28 22:44 | 68.83364 | 16.67284 | 4019 ft | 125 kts | 237° |
| 2026-04-28 22:44 | 68.82853 | 16.65350 | 4007 ft | 125 kts | 224° |
| 2026-04-28 22:44 | 68.82050 | 16.64566 | 4017 ft | 129 kts | 179° |
| 2026-04-28 22:45 | 68.81198 | 16.65328 | 4024 ft | 130 kts | 157° |
| 2026-04-28 22:45 | 68.80423 | 16.66636 | 4016 ft | 131 kts | 151° |
| 2026-04-28 22:45 | 68.79593 | 16.67006 | 4016 ft | 123 kts | 202° |
| 2026-04-28 22:45 | 68.78913 | 16.65625 | 4023 ft | 121 kts | 227° |
| 2026-04-28 22:46 | 68.78289 | 16.64065 | 4011 ft | 123 kts | 210° |
| 2026-04-28 22:46 | 68.77446 | 16.63785 | 4025 ft | 127 kts | 173° |
| 2026-04-28 22:46 | 68.76595 | 16.64535 | 4016 ft | 128 kts | 166° |
| 2026-04-28 22:46 | 68.75732 | 16.65006 | 4019 ft | 126 kts | 181° |
| 2026-04-28 22:47 | 68.74861 | 16.64896 | 4012 ft | 125 kts | 189° |
| 2026-04-28 22:47 | 68.73991 | 16.64766 | 4028 ft | 126 kts | 184° |
| 2026-04-28 22:47 | 68.73112 | 16.64928 | 4020 ft | 127 kts | 178° |
| 2026-04-28 22:47 | 68.72241 | 16.65164 | 4023 ft | 125 kts | 180° |
| 2026-04-28 22:48 | 68.71374 | 16.65257 | 4011 ft | 124 kts | 183° |
| 2026-04-28 22:48 | 68.70519 | 16.65313 | 4015 ft | 122 kts | 182° |
| 2026-04-28 22:48 | 68.69671 | 16.65394 | 4018 ft | 122 kts | 182° |
| 2026-04-28 22:48 | 68.68819 | 16.65488 | 4016 ft | 122 kts | 182° |
| 2026-04-28 22:49 | 68.67967 | 16.65592 | 4015 ft | 122 kts | 182° |
| 2026-04-28 22:49 | 68.67121 | 16.65701 | 4027 ft | 121 kts | 182° |
| 2026-04-28 22:49 | 68.66277 | 16.65810 | 4012 ft | 122 kts | 182° |
| 2026-04-28 22:49 | 68.65431 | 16.65919 | 3952 ft | 122 kts | 182° |
| 2026-04-28 22:50 | 68.64590 | 16.66025 | 3808 ft | 120 kts | 182° |
| 2026-04-28 22:50 | 68.63772 | 16.66126 | 3620 ft | 117 kts | 182° |
| 2026-04-28 22:50 | 68.62964 | 16.66222 | 3431 ft | 116 kts | 182° |
| 2026-04-28 22:50 | 68.62162 | 16.66316 | 3235 ft | 115 kts | 182° |
| 2026-04-28 22:51 | 68.61370 | 16.66408 | 3051 ft | 114 kts | 182° |
| 2026-04-28 22:51 | 68.60593 | 16.66496 | 2870 ft | 113 kts | 181° |
| 2026-04-28 22:51 | 68.59802 | 16.66586 | 2648 ft | 112 kts | 181° |
| 2026-04-28 22:51 | 68.59021 | 16.66676 | 2446 ft | 113 kts | 181° |
| 2026-04-28 22:52 | 68.58239 | 16.66766 | 2234 ft | 112 kts | 180° |
| 2026-04-28 22:52 | 68.57453 | 16.66856 | 2024 ft | 113 kts | 180° |
| 2026-04-28 22:52 | 68.56671 | 16.66946 | 1817 ft | 112 kts | 180° |
| 2026-04-28 22:52 | 68.55886 | 16.67036 | 1593 ft | 114 kts | 179° |
| 2026-04-28 22:53 | 68.55100 | 16.67125 | 1361 ft | 116 kts | 178° |
| 2026-04-28 22:53 | 68.54289 | 16.67219 | 1141 ft | 117 kts | 178° |
| 2026-04-28 22:53 | 68.53467 | 16.67314 | 896 ft | 118 kts | 177° |
| 2026-04-28 22:53 | 68.52644 | 16.67410 | 578 ft | 118 kts | 178° |
| 2026-04-28 22:54 | 68.51832 | 16.67479 | 340 ft | 115 kts | 177° |
| 2026-04-28 22:54 | 68.51040 | 16.67586 | 179 ft | 113 kts | 178° |
| 2026-04-28 22:54 | 68.50285 | 16.67684 | 127 ft | 107 kts | 178° |
| 2026-04-28 22:54 | 68.49567 | 16.67783 | 112 ft | 103 kts | 177° |
| 2026-04-28 22:55 | 68.48913 | 16.67835 | 94 ft | 49 kts | 176° |
| 2026-04-28 22:55 | 68.48867 | 16.67841 | 92 ft | 0 kts | 179° |
| 2026-04-28 22:55 | 68.48872 | 16.67840 | 93 ft | 0 kts | 195° |
| 2026-04-28 22:55 | 68.48870 | 16.67846 | 92 ft | 0 kts | 159° |
| 2026-04-28 22:56 | 68.48871 | 16.67851 | 93 ft | 1 kts | 133° |
| 2026-04-28 22:56 | 68.48876 | 16.67872 | 94 ft | 0 kts | 73° |
| 2026-04-28 22:56 | 68.48881 | 16.67921 | 91 ft | 5 kts | 74° |
| 2026-04-28 22:56 | 68.48887 | 16.68018 | 91 ft | 6 kts | 82° |
| 2026-04-28 22:57 | 68.48888 | 16.68122 | 91 ft | 5 kts | 97° |
| 2026-04-28 22:57 | 68.48872 | 16.68194 | 95 ft | 4 kts | 144° |
| 2026-04-28 22:57 | 68.48848 | 16.68215 | 91 ft | 4 kts | 166° |
| 2026-04-28 22:57 | 68.48829 | 16.68228 | 91 ft | 1 kts | 166° |
| 2026-04-28 22:58 | 68.48828 | 16.68229 | 91 ft | 0 kts | 166° |
| 2026-04-28 22:58 | 68.48816 | 16.68231 | 94 ft | 2 kts | 176° |
| 2026-04-28 22:58 | 68.48807 | 16.68233 | 93 ft | 3 kts | 176° |
| 2026-04-28 22:58 | 68.48771 | 16.68243 | 92 ft | 7 kts | 169° |
| 2026-04-28 22:59 | 68.48739 | 16.68338 | 92 ft | 9 kts | 104° |
| 2026-04-28 22:59 | 68.48742 | 16.68529 | 91 ft | 12 kts | 85° |
| 2026-04-28 22:59 | 68.48749 | 16.68713 | 93 ft | 7 kts | 77° |
| 2026-04-28 22:59 | 68.48768 | 16.68782 | 93 ft | 3 kts | 26° |
| 2026-04-28 23:00 | 68.48796 | 16.68764 | 92 ft | 5 kts | 326° |
| 2026-04-28 23:00 | 68.48811 | 16.68713 | 92 ft | 6 kts | 304° |
| 2026-04-28 23:00 | 68.48815 | 16.68644 | 91 ft | 0 kts | 267° |